Time;durP1;ratioP1;P1;durP2;ratioP2;P2;SDS_P1;SDS_P2;PMS_P1;PMS_P2;Temp;Humidity;BMP_temperature;BMP_pressure;BME280_temperature;BME280_humidity;BME280_pressure;Samples;Min_cycle;Max_cycle;Signal;HPM_P1;HPM_P2
2022/10/19 00:01:20;;;;;;;9.35;3.20;;;10.30;99.90;;;;;;4899783;29;20066;-96
2022/10/19 00:03:48;;;;;;;9.30;3.42;;;10.20;99.90;;;;;;4913467;29;20283;-95
2022/10/19 00:06:24;;;;;;;11.02;3.30;;;10.20;99.90;;;;;;4900284;29;20063;-95
2022/10/19 00:08:51;;;;;;;8.50;3.00;;;10.20;99.90;;;;;;4909149;29;20048;-96
2022/10/19 00:11:17;;;;;;;10.13;3.38;;;10.10;99.90;;;;;;4910812;29;20071;-96
2022/10/19 00:13:43;;;;;;;9.30;3.00;;;10.00;99.90;;;;;;4913610;29;20043;-96
2022/10/19 00:16:14;;;;;;;9.18;3.20;;;10.00;99.90;;;;;;4916656;29;20048;-95
2022/10/19 00:18:42;;;;;;;9.93;3.60;;;10.00;99.90;;;;;;4916018;29;20087;-95
2022/10/19 00:21:11;;;;;;;9.05;3.22;;;10.00;99.90;;;;;;4915729;29;20032;-95
2022/10/19 00:23:37;;;;;;;8.00;3.08;;;9.90;99.90;;;;;;4915683;29;20064;-95
2022/10/19 00:26:03;;;;;;;9.82;3.35;;;9.90;99.90;;;;;;4899861;29;20040;-95
2022/10/19 00:28:29;;;;;;;7.32;2.90;;;9.90;99.90;;;;;;4915207;29;20494;-96
2022/10/19 00:30:54;;;;;;;9.77;2.85;;;9.90;99.90;;;;;;4898820;29;20047;-95
2022/10/19 00:33:21;;;;;;;9.07;3.30;;;9.80;99.90;;;;;;4917243;29;20068;-96
2022/10/19 00:35:48;;;;;;;7.75;2.92;;;9.70;99.90;;;;;;4916335;29;20115;-96
2022/10/19 00:38:16;;;;;;;7.97;2.85;;;9.70;99.90;;;;;;4914155;29;20169;-95
2022/10/19 00:40:42;;;;;;;7.70;2.10;;;9.70;99.90;;;;;;4914793;29;20040;-96
2022/10/19 00:43:18;;;;;;;9.25;3.60;;;9.60;99.90;;;;;;4915246;29;20024;-96
2022/10/19 00:45:43;;;;;;;9.63;3.22;;;9.60;99.90;;;;;;4916820;29;20024;-95
2022/10/19 00:48:12;;;;;;;10.73;3.28;;;9.60;99.90;;;;;;4916179;29;20048;-94
2022/10/19 00:50:38;;;;;;;7.15;3.00;;;9.60;99.90;;;;;;4917333;29;20040;-95
2022/10/19 00:53:04;;;;;;;10.00;3.72;;;9.60;99.90;;;;;;4918742;29;20052;-96
2022/10/19 00:55:30;;;;;;;8.02;3.22;;;9.60;99.90;;;;;;4916119;29;20840;-93
2022/10/19 00:57:56;;;;;;;8.18;3.08;;;9.60;99.90;;;;;;4922443;29;20039;-94
2022/10/19 01:00:22;;;;;;;7.50;3.10;;;9.60;99.90;;;;;;4903768;29;20055;-95
2022/10/19 01:02:47;;;;;;;8.40;3.22;;;9.60;99.90;;;;;;4899193;29;20032;-95
2022/10/19 01:05:13;;;;;;;8.55;3.67;;;9.70;99.90;;;;;;4915059;29;20040;-94
2022/10/19 01:07:39;;;;;;;11.40;3.58;;;9.70;99.90;;;;;;4916217;29;20036;-95
2022/10/19 01:10:06;;;;;;;11.18;3.72;;;9.70;99.90;;;;;;4915259;29;20074;-95
2022/10/19 01:12:53;;;;;;;11.90;3.47;;;9.70;99.90;;;;;;4907734;29;20044;-95
2022/10/19 01:15:39;;;;;;;10.88;3.90;;;9.70;99.90;;;;;;4907055;29;20046;-95
2022/10/19 01:18:25;;;;;;;8.85;3.65;;;9.70;99.90;;;;;;4905463;29;20103;-96
2022/10/19 01:20:51;;;;;;;11.43;4.18;;;9.70;99.90;;;;;;4894468;29;20044;-96
2022/10/19 01:23:46;;;;;;;12.25;4.03;;;9.70;99.90;;;;;;4899132;29;20051;-96
2022/10/19 01:26:45;;;;;;;11.48;3.67;;;9.80;99.90;;;;;;4901991;29;20049;-95
2022/10/19 01:29:40;;;;;;;10.35;4.20;;;9.80;99.90;;;;;;4913597;29;20055;-95
2022/10/19 01:32:43;;;;;;;10.52;4.35;;;9.90;99.90;;;;;;4911290;29;20131;-95
2022/10/19 01:35:32;;;;;;;9.88;4.32;;;9.90;99.90;;;;;;4891163;29;20063;-95
2022/10/19 01:38:10;;;;;;;11.50;3.88;;;10.00;99.90;;;;;;4913197;29;20032;-96
2022/10/19 01:40:53;;;;;;;10.45;4.03;;;10.00;99.90;;;;;;4918128;29;20041;-95
2022/10/19 01:43:28;;;;;;;13.57;4.47;;;10.00;99.90;;;;;;4918264;29;20044;-95
2022/10/19 01:46:02;;;;;;;11.00;4.40;;;10.00;99.90;;;;;;4920430;29;20047;-96
2022/10/19 01:48:33;;;;;;;10.93;4.57;;;10.10;99.90;;;;;;4917857;29;20051;-95
2022/10/19 01:51:19;;;;;;;12.65;4.28;;;10.10;99.90;;;;;;4897910;29;20485;-95
2022/10/19 01:53:49;;;;;;;11.38;3.92;;;10.10;99.90;;;;;;4902684;29;20265;-95
2022/10/19 01:56:18;;;;;;;10.88;3.92;;;10.20;99.90;;;;;;4918670;29;20052;-95
2022/10/19 01:58:45;;;;;;;11.05;4.43;;;10.20;99.90;;;;;;4919592;29;20032;-95
2022/10/19 02:01:13;;;;;;;11.07;4.07;;;10.20;99.90;;;;;;4901511;29;20046;-94
2022/10/19 02:03:39;;;;;;;9.73;4.20;;;10.30;99.90;;;;;;4912069;29;20052;-95
2022/10/19 02:06:07;;;;;;;10.40;3.70;;;10.30;99.90;;;;;;4901616;29;20437;-94
2022/10/19 02:08:48;;;;;;;11.77;4.35;;;10.30;99.90;;;;;;4915133;29;20051;-95
2022/10/19 02:11:14;;;;;;;;;;;10.30;99.90;;;;;;4914029;29;20044;-95
2022/10/19 02:13:42;;;;;;;10.20;3.58;;;10.30;99.90;;;;;;4918408;29;19951;-96
2022/10/19 02:16:15;;;;;;;10.65;3.58;;;10.30;99.90;;;;;;4902574;29;20028;-96
2022/10/19 02:18:45;;;;;;;8.63;2.90;;;10.40;99.90;;;;;;4917318;29;20116;-96
2022/10/19 02:21:11;;;;;;;10.90;3.87;;;10.40;99.90;;;;;;4919017;29;20036;-96
2022/10/19 02:23:37;;;;;;;8.20;3.35;;;10.30;99.90;;;;;;4917979;29;20300;-95
2022/10/19 02:26:03;;;;;;;9.45;3.63;;;10.40;99.90;;;;;;4916548;29;20017;-94
2022/10/19 02:28:30;;;;;;;11.48;3.92;;;10.40;99.90;;;;;;4917700;29;20135;-96
2022/10/19 02:30:56;;;;;;;11.82;3.88;;;10.40;99.90;;;;;;4916013;29;20041;-95
2022/10/19 02:33:22;;;;;;;10.98;4.07;;;10.40;99.90;;;;;;4915522;29;20052;-96
2022/10/19 02:35:48;;;;;;;9.70;3.63;;;10.30;99.90;;;;;;4903591;29;20103;-96
2022/10/19 02:38:18;;;;;;;11.45;3.83;;;10.40;99.90;;;;;;4918011;29;20041;-95
2022/10/19 02:40:50;;;;;;;10.90;4.10;;;10.30;99.90;;;;;;4919491;29;20473;-96
2022/10/19 02:43:20;;;;;;;11.65;3.83;;;10.30;99.90;;;;;;4914947;29;20055;-96
2022/10/19 02:45:53;;;;;;;12.52;4.15;;;10.30;99.90;;;;;;4920449;29;20116;-96
2022/10/19 02:48:23;;;;;;;9.20;3.72;;;10.30;99.90;;;;;;4920073;29;20044;-96
2022/10/19 02:50:50;;;;;;;11.37;3.97;;;10.20;99.90;;;;;;4916236;29;20108;-96
2022/10/19 02:53:16;;;;;;;10.55;3.85;;;10.20;99.90;;;;;;4914061;29;20309;-95
2022/10/19 02:55:43;;;;;;;10.80;3.90;;;10.20;99.90;;;;;;4901871;29;20047;-96
2022/10/19 02:58:09;;;;;;;10.55;3.92;;;10.20;99.90;;;;;;4916392;29;20036;-96
2022/10/19 03:00:34;;;;;;;9.38;3.95;;;10.20;99.90;;;;;;4916911;29;20043;-95
2022/10/19 03:03:01;;;;;;;8.23;3.97;;;10.10;99.90;;;;;;4901049;29;20043;-95
2022/10/19 03:05:27;;;;;;;11.05;4.00;;;10.20;99.90;;;;;;4918392;29;20379;-95
2022/10/19 03:07:53;;;;;;;9.07;3.65;;;10.20;99.90;;;;;;4901143;29;20047;-96
2022/10/19 03:10:19;;;;;;;11.55;4.32;;;10.30;99.90;;;;;;4901794;29;20295;-95
2022/10/19 03:12:45;;;;;;;8.00;3.47;;;10.20;99.90;;;;;;4915807;29;20048;-95
2022/10/19 03:15:15;;;;;;;8.93;3.58;;;10.30;99.90;;;;;;4891119;29;20041;-95
2022/10/19 03:17:41;;;;;;;9.82;3.42;;;10.30;99.90;;;;;;4905197;29;20039;-95
2022/10/19 03:20:07;;;;;;;10.05;3.67;;;10.30;99.90;;;;;;4901928;29;20405;-95
2022/10/19 03:22:33;;;;;;;9.75;3.60;;;10.30;99.90;;;;;;4914974;29;20131;-94
2022/10/19 03:24:58;;;;;;;8.80;3.47;;;10.30;99.90;;;;;;4913215;29;20079;-95
2022/10/19 03:27:24;;;;;;;12.10;3.90;;;10.30;99.90;;;;;;4900584;29;20084;-96
2022/10/19 03:29:50;;;;;;;9.95;3.65;;;10.30;99.90;;;;;;4915862;29;20048;-95
2022/10/19 03:32:15;;;;;;;9.20;3.58;;;10.30;99.90;;;;;;4916333;29;20127;-95
2022/10/19 03:34:41;;;;;;;11.75;3.90;;;10.40;99.90;;;;;;4916149;29;20059;-94
2022/10/19 03:37:07;;;;;;;10.07;3.22;;;10.30;99.90;;;;;;4915686;29;20355;-96
2022/10/19 03:39:33;;;;;;;12.25;3.35;;;10.50;99.90;;;;;;4917369;29;20039;-96
2022/10/19 03:41:59;;;;;;;8.75;3.08;;;10.40;99.90;;;;;;4917203;29;20122;-95
2022/10/19 03:44:25;;;;;;;9.73;3.28;;;10.40;99.90;;;;;;4914005;29;20515;-95
2022/10/19 03:46:51;;;;;;;9.98;3.47;;;10.40;99.90;;;;;;4917601;29;20016;-95
2022/10/19 03:49:16;;;;;;;8.52;3.55;;;10.40;99.90;;;;;;4915166;29;20422;-96
2022/10/19 03:51:42;;;;;;;9.25;3.40;;;10.40;99.90;;;;;;4916650;29;20028;-95
2022/10/19 03:54:12;;;;;;;11.73;3.03;;;10.40;99.90;;;;;;4910200;29;20303;-96
2022/10/19 03:56:38;;;;;;;9.52;3.42;;;10.40;99.90;;;;;;4916949;29;20095;-96
2022/10/19 03:59:05;;;;;;;8.70;3.25;;;10.40;99.90;;;;;;4908078;29;20040;-95
2022/10/19 04:01:37;;;;;;;9.35;3.13;;;10.30;99.90;;;;;;4914245;29;20132;-96
2022/10/19 04:04:06;;;;;;;10.45;3.10;;;10.40;99.90;;;;;;4906674;29;20523;-95
2022/10/19 04:06:34;;;;;;;8.45;3.05;;;10.40;99.90;;;;;;4913198;29;20032;-95
2022/10/19 04:09:01;;;;;;;11.63;3.33;;;10.30;99.90;;;;;;4897400;29;20028;-96
2022/10/19 04:11:29;;;;;;;8.48;3.00;;;10.30;99.90;;;;;;4900316;29;20054;-95
2022/10/19 04:13:56;;;;;;;10.18;3.30;;;10.30;99.90;;;;;;4900597;29;20044;-96
2022/10/19 04:16:23;;;;;;;8.02;3.22;;;10.30;99.90;;;;;;4900270;29;20032;-96
2022/10/19 04:18:49;;;;;;;9.48;3.13;;;10.30;99.90;;;;;;4915791;29;20043;-96
2022/10/19 04:21:31;;;;;;;11.30;3.42;;;10.30;99.90;;;;;;4913266;29;20040;-95
2022/10/19 04:24:00;;;;;;;10.65;3.53;;;10.20;99.90;;;;;;4896847;29;20507;-96
2022/10/19 04:26:26;;;;;;;9.02;3.33;;;10.30;99.90;;;;;;4914579;29;20095;-95
2022/10/19 04:28:52;;;;;;;9.18;3.30;;;10.30;99.90;;;;;;4915761;29;20059;-95
2022/10/19 04:31:18;;;;;;;8.70;3.25;;;10.30;99.90;;;;;;4915458;29;20044;-96
2022/10/19 04:33:43;;;;;;;9.05;3.35;;;10.20;99.90;;;;;;4896144;29;20043;-96
2022/10/19 04:36:10;;;;;;;9.90;3.40;;;10.20;99.90;;;;;;4914534;29;20123;-95
2022/10/19 04:38:37;;;;;;;13.30;3.40;;;10.30;99.90;;;;;;4898928;29;20060;-96
2022/10/19 04:41:03;;;;;;;9.00;3.30;;;10.30;99.90;;;;;;4923681;29;20115;-96
2022/10/19 04:43:29;;;;;;;11.77;3.55;;;10.20;99.90;;;;;;4915814;29;20040;-96
2022/10/19 04:45:55;;;;;;;11.95;3.10;;;10.20;99.90;;;;;;4915937;29;20496;-96
2022/10/19 04:48:20;;;;;;;12.95;3.40;;;10.20;99.90;;;;;;4899405;29;20095;-94
2022/10/19 04:50:46;;;;;;;10.45;3.60;;;10.20;99.90;;;;;;4916063;29;20091;-95
2022/10/19 04:53:11;;;;;;;10.05;3.10;;;10.20;99.90;;;;;;4911322;29;20044;-95
2022/10/19 04:55:41;;;;;;;10.80;3.22;;;10.20;99.90;;;;;;4915439;29;20119;-95
2022/10/19 04:58:07;;;;;;;8.00;3.25;;;10.20;99.90;;;;;;4904952;29;20040;-96
2022/10/19 05:00:33;;;;;;;9.38;3.30;;;10.20;99.90;;;;;;4911573;29;20043;-94
2022/10/19 05:02:58;;;;;;;10.10;3.63;;;10.20;99.90;;;;;;4906870;29;20052;-93
2022/10/19 05:05:25;;;;;;;11.15;3.17;;;10.20;99.90;;;;;;4916739;29;20055;-95
2022/10/19 05:07:51;;;;;;;10.07;3.47;;;10.20;99.90;;;;;;4912965;29;20048;-96
2022/10/19 05:10:16;;;;;;;11.38;3.60;;;10.20;99.90;;;;;;4934897;29;20083;-95
2022/10/19 05:12:42;;;;;;;11.00;3.63;;;10.20;99.90;;;;;;4930585;29;20041;-96
2022/10/19 05:15:08;;;;;;;10.57;3.53;;;10.20;99.90;;;;;;4924939;29;20052;-96
2022/10/19 05:17:34;;;;;;;9.38;3.10;;;10.20;99.90;;;;;;4921567;29;20055;-95
2022/10/19 05:20:00;;;;;;;9.73;3.22;;;10.20;99.90;;;;;;4921337;29;20041;-95
2022/10/19 05:22:25;;;;;;;9.27;3.75;;;10.30;99.90;;;;;;4917659;29;20044;-94
2022/10/19 05:24:51;;;;;;;8.02;3.63;;;10.30;99.90;;;;;;4919663;29;20064;-95
2022/10/19 05:27:17;;;;;;;11.25;3.60;;;10.30;99.90;;;;;;4918979;29;20051;-96
2022/10/19 05:29:42;;;;;;;10.27;3.38;;;10.30;99.90;;;;;;4918943;29;20074;-93
2022/10/19 05:32:08;;;;;;;10.77;3.38;;;10.30;99.90;;;;;;4919424;29;20058;-95
2022/10/19 05:34:34;;;;;;;9.70;3.50;;;10.20;99.90;;;;;;4917332;29;20048;-94
2022/10/19 05:36:59;;;;;;;8.77;3.30;;;10.20;99.90;;;;;;4917596;29;20414;-92
2022/10/19 05:39:25;;;;;;;10.52;3.50;;;10.20;99.90;;;;;;4910382;29;20040;-96
2022/10/19 05:41:51;;;;;;;11.20;3.88;;;10.20;99.90;;;;;;4920798;29;20059;-94
2022/10/19 05:44:19;;;;;;;9.02;3.25;;;10.20;99.90;;;;;;4912609;29;20044;-94
2022/10/19 05:46:45;;;;;;;13.93;3.40;;;10.20;99.90;;;;;;4933758;29;20055;-94
2022/10/19 05:49:12;;;;;;;8.35;3.17;;;10.20;99.90;;;;;;4917891;29;20036;-92
2022/10/19 05:51:38;;;;;;;14.20;3.75;;;10.20;99.90;;;;;;4915641;29;20045;-93
2022/10/19 05:54:04;;;;;;;12.52;3.90;;;10.20;99.90;;;;;;4917096;29;20111;-92
2022/10/19 05:56:31;;;;;;;10.68;3.33;;;10.20;99.90;;;;;;4915235;29;20049;-94
2022/10/19 05:58:58;;;;;;;9.93;2.92;;;10.20;99.90;;;;;;4909205;29;20032;-92
2022/10/19 06:01:25;;;;;;;11.50;3.20;;;10.30;99.90;;;;;;4915272;29;20043;-94
2022/10/19 06:03:53;;;;;;;8.63;3.03;;;10.20;99.90;;;;;;4902509;29;20082;-95
2022/10/19 06:06:20;;;;;;;10.02;3.55;;;10.20;99.90;;;;;;4924560;29;20083;-96
2022/10/19 06:08:46;;;;;;;10.40;2.67;;;10.10;99.90;;;;;;4902568;29;20079;-95
2022/10/19 06:11:14;;;;;;;10.43;2.90;;;10.20;99.90;;;;;;4922138;29;20056;-96
2022/10/19 06:13:43;;;;;;;10.68;2.75;;;10.10;99.90;;;;;;4930210;29;20100;-96
2022/10/19 08:49:02;;;;;;;13.82;2.20;;;12.40;99.90;;;;;;4905799;29;20047;-94
2022/10/19 08:51:36;;;;;;;10.45;2.35;;;12.40;99.90;;;;;;4906473;29;20049;-95
2022/10/19 10:02:19;;;;;;;10.80;2.28;;;13.10;99.90;;;;;;1998018;23;20339;-93
2022/10/19 10:05:15;;;;;;;9.18;1.77;;;13.10;99.90;;;;;;4989524;23;20027;-96
2022/10/19 10:07:41;;;;;;;8.55;1.60;;;13.10;99.90;;;;;;4891761;29;20064;-96
2022/10/19 12:50:56;;;;;;;9.00;2.10;;;13.60;99.90;;;;;;863338;23;20345;31
2022/10/19 12:53:29;;;;;;;9.88;2.00;;;13.70;99.90;;;;;;4882173;29;20132;-96
2022/10/19 12:56:24;;;;;;;8.30;2.00;;;13.80;99.90;;;;;;4879746;29;20495;-96
2022/10/19 12:59:00;;;;;;;7.82;2.13;;;13.80;99.90;;;;;;4881111;29;20116;-96
2022/10/19 13:01:35;;;;;;;9.05;3.05;;;13.80;99.90;;;;;;4885250;29;20077;-93
2022/10/19 13:04:13;;;;;;;9.88;2.60;;;13.70;99.90;;;;;;4878698;29;20108;-94
2022/10/19 13:07:06;;;;;;;6.97;2.45;;;13.70;99.90;;;;;;4875092;29;20052;-91
2022/10/19 13:09:42;;;;;;;7.72;2.30;;;13.60;99.90;;;;;;4877326;29;20045;-96
2022/10/19 13:12:14;;;;;;;6.97;2.30;;;13.60;99.90;;;;;;4874404;29;20526;-96
2022/10/19 13:14:40;;;;;;;9.32;2.55;;;13.50;99.90;;;;;;4876983;29;20049;-96
2022/10/19 13:17:07;;;;;;;10.20;2.95;;;13.50;99.90;;;;;;4877651;29;20146;-96
2022/10/19 13:19:32;;;;;;;10.40;3.03;;;13.50;99.90;;;;;;4866914;29;20038;-94
2022/10/19 13:22:01;;;;;;;8.07;2.92;;;13.50;99.90;;;;;;4870896;29;20037;-96
2022/10/19 13:24:32;;;;;;;7.97;3.60;;;13.50;99.90;;;;;;4868870;29;20064;-92
2022/10/19 13:27:01;;;;;;;10.00;4.00;;;13.50;99.90;;;;;;4873357;29;20046;-94
2022/10/19 13:29:36;;;;;;;12.38;4.50;;;13.40;99.90;;;;;;4875921;29;20084;-96
2022/10/19 13:32:42;;;;;;;9.27;4.00;;;13.40;99.90;;;;;;4861545;29;20052;-94
2022/10/19 13:35:26;;;;;;;7.90;3.45;;;13.30;99.90;;;;;;4876819;29;20057;-95
2022/10/19 13:38:13;;;;;;;10.35;3.30;;;13.40;99.90;;;;;;4882120;29;20045;-96
2022/10/19 14:54:53;;;;;;;10.50;5.90;;;12.70;99.90;;;;;;4892989;29;20443;-93
2022/10/19 14:57:27;;;;;;;10.40;6.82;;;12.80;99.90;;;;;;4886860;29;21890;-93
2022/10/19 14:59:56;;;;;;;;;;;12.70;99.90;;;;;;4895792;29;20055;-96
2022/10/19 15:02:24;;;;;;;10.65;6.40;;;12.60;99.90;;;;;;4900595;29;19923;-93
2022/10/19 15:04:53;;;;;;;8.70;5.85;;;12.60;99.90;;;;;;4898643;29;20075;-95
2022/10/19 15:07:33;;;;;;;11.57;6.50;;;12.70;99.90;;;;;;4888038;29;20052;-92
2022/10/19 15:10:08;;;;;;;10.77;6.55;;;12.70;99.90;;;;;;4903948;29;20057;-96
2022/10/19 15:12:42;;;;;;;12.55;6.80;;;12.60;99.90;;;;;;4894135;29;20468;-96
2022/10/19 15:15:20;;;;;;;12.38;7.07;;;12.60;99.90;;;;;;4905227;29;20064;-96
2022/10/19 15:17:59;;;;;;;11.60;6.80;;;12.60;99.90;;;;;;4902308;29;20072;-96
2022/10/19 15:20:35;;;;;;;9.85;6.03;;;12.60;99.90;;;;;;4890578;29;20057;-95
2022/10/19 15:23:37;;;;;;;9.60;6.00;;;12.50;99.90;;;;;;4905483;29;20020;-96
2022/10/19 15:26:20;;;;;;;29.95;9.77;;;12.50;99.90;;;;;;4880888;29;20053;-95
2022/10/19 15:28:52;;;;;;;11.57;6.05;;;12.50;99.90;;;;;;4899361;29;20502;-96
2022/10/19 15:31:22;;;;;;;9.60;6.00;;;12.40;99.90;;;;;;4884914;29;20056;-96
2022/10/19 18:02:43;;;;;;;10.45;4.28;;;10.40;99.90;;;;;;516054;23;20305;-94
2022/10/19 18:05:09;;;;;;;10.95;4.53;;;10.40;99.90;;;;;;4921488;29;20063;-96
2022/10/19 18:07:35;;;;;;;10.18;4.32;;;10.40;99.90;;;;;;4921174;29;20043;-96
2022/10/19 18:10:01;;;;;;;9.30;4.70;;;10.30;99.90;;;;;;4925100;29;20040;-93
2022/10/19 18:12:26;;;;;;;10.30;4.30;;;10.30;99.90;;;;;;4910315;29;20127;-95
2022/10/19 18:14:52;;;;;;;9.77;4.80;;;10.30;99.90;;;;;;4912942;29;20044;-96
2022/10/19 18:17:18;;;;;;;12.48;4.90;;;10.30;99.90;;;;;;4911186;29;20043;-95
2022/10/19 18:19:43;;;;;;;9.32;4.97;;;10.30;99.90;;;;;;4911084;29;20047;-96
2022/10/19 18:22:09;;;;;;;10.45;5.00;;;10.30;99.90;;;;;;4910408;29;20040;-96
2022/10/19 18:24:35;;;;;;;9.75;4.78;;;10.30;99.90;;;;;;4913630;29;20478;-95
2022/10/19 18:27:01;;;;;;;10.18;4.97;;;10.20;99.90;;;;;;4926024;29;20138;-94
2022/10/19 18:29:26;;;;;;;12.48;5.68;;;10.20;99.90;;;;;;4906926;29;20042;-94
2022/10/19 18:31:52;;;;;;;10.88;6.22;;;10.20;99.90;;;;;;4906154;29;20040;-94
2022/10/19 18:34:28;;;;;;;12.73;5.35;;;10.20;99.90;;;;;;4912507;29;20035;-96
2022/10/19 18:36:54;;;;;;;11.27;6.07;;;10.10;99.90;;;;;;4914490;29;20107;-93
2022/10/19 18:39:20;;;;;;;8.93;5.18;;;10.10;99.90;;;;;;4907623;29;20048;-95
2022/10/19 18:41:50;;;;;;;10.95;5.35;;;10.10;99.90;;;;;;4933855;29;20031;-95
